sensor_id;sensor_type;location;lat;lon;timestamp;temperature;humidity
1107;DHT22;540;49.448;8.612;2022-07-30T00:00:18;22.20;96.70
1107;DHT22;540;49.448;8.612;2022-07-30T00:02:51;22.00;97.20
1107;DHT22;540;49.448;8.612;2022-07-30T00:05:19;21.90;98.10
1107;DHT22;540;49.448;8.612;2022-07-30T00:07:47;21.90;99.00
1107;DHT22;540;49.448;8.612;2022-07-30T00:10:16;21.70;99.10
1107;DHT22;540;49.448;8.612;2022-07-30T00:12:44;22.00;99.60
1107;DHT22;540;49.448;8.612;2022-07-30T00:15:12;21.90;98.90
1107;DHT22;540;49.448;8.612;2022-07-30T00:17:40;21.60;99.90
1107;DHT22;540;49.448;8.612;2022-07-30T00:20:12;21.50;99.90
1107;DHT22;540;49.448;8.612;2022-07-30T00:22:40;21.80;99.90
1107;DHT22;540;49.448;8.612;2022-07-30T00:25:08;21.80;99.90
1107;DHT22;540;49.448;8.612;2022-07-30T00:27:38;21.80;99.90
1107;DHT22;540;49.448;8.612;2022-07-30T00:30:07;21.70;99.90
1107;DHT22;540;49.448;8.612;2022-07-30T00:32:35;21.20;99.90
1107;DHT22;540;49.448;8.612;2022-07-30T00:35:04;21.60;99.90
1107;DHT22;540;49.448;8.612;2022-07-30T00:37:32;21.60;99.90
1107;DHT22;540;49.448;8.612;2022-07-30T00:39:59;21.30;99.90
1107;DHT22;540;49.448;8.612;2022-07-30T00:42:38;21.50;99.90
1107;DHT22;540;49.448;8.612;2022-07-30T00:45:07;20.90;99.90
1107;DHT22;540;49.448;8.612;2022-07-30T00:47:35;21.50;99.90
1107;DHT22;540;49.448;8.612;2022-07-30T00:50:05;21.50;99.90
1107;DHT22;540;49.448;8.612;2022-07-30T00:52:33;21.40;99.90
1107;DHT22;540;49.448;8.612;2022-07-30T00:55:02;21.30;99.90
1107;DHT22;540;49.448;8.612;2022-07-30T00:57:30;21.20;99.90
1107;DHT22;540;49.448;8.612;2022-07-30T01:00:03;21.30;99.90
1107;DHT22;540;49.448;8.612;2022-07-30T01:02:31;21.20;99.90
1107;DHT22;540;49.448;8.612;2022-07-30T01:04:59;21.20;99.90
1107;DHT22;540;49.448;8.612;2022-07-30T01:07:28;20.70;99.90
1107;DHT22;540;49.448;8.612;2022-07-30T01:09:56;20.80;99.90
1107;DHT22;540;49.448;8.612;2022-07-30T01:12:25;21.00;99.90
1107;DHT22;540;49.448;8.612;2022-07-30T01:14:55;21.10;99.90
1107;DHT22;540;49.448;8.612;2022-07-30T01:17:25;20.90;99.90
1107;DHT22;540;49.448;8.612;2022-07-30T01:19:56;20.90;99.90
1107;DHT22;540;49.448;8.612;2022-07-30T01:22:38;20.80;99.90
1107;DHT22;540;49.448;8.612;2022-07-30T01:25:15;20.60;99.90
1107;DHT22;540;49.448;8.612;2022-07-30T01:27:48;20.50;99.90
1107;DHT22;540;49.448;8.612;2022-07-30T01:30:19;20.40;99.90
1107;DHT22;540;49.448;8.612;2022-07-30T01:32:48;20.10;99.90
1107;DHT22;540;49.448;8.612;2022-07-30T01:35:19;20.40;99.90
1107;DHT22;540;49.448;8.612;2022-07-30T01:37:48;20.40;99.90
1107;DHT22;540;49.448;8.612;2022-07-30T01:40:16;20.20;99.90
1107;DHT22;540;49.448;8.612;2022-07-30T01:42:48;20.30;99.90
1107;DHT22;540;49.448;8.612;2022-07-30T01:45:21;20.10;99.90
1107;DHT22;540;49.448;8.612;2022-07-30T01:47:51;20.20;99.90
1107;DHT22;540;49.448;8.612;2022-07-30T01:50:21;20.40;99.90
1107;DHT22;540;49.448;8.612;2022-07-30T01:52:51;19.90;99.90
1107;DHT22;540;49.448;8.612;2022-07-30T01:55:22;20.40;99.90
1107;DHT22;540;49.448;8.612;2022-07-30T01:57:53;20.20;99.90
1107;DHT22;540;49.448;8.612;2022-07-30T02:00:24;20.20;99.90
1107;DHT22;540;49.448;8.612;2022-07-30T02:02:53;20.20;99.90
1107;DHT22;540;49.448;8.612;2022-07-30T02:05:21;20.30;99.90
1107;DHT22;540;49.448;8.612;2022-07-30T02:07:53;20.30;99.90
1107;DHT22;540;49.448;8.612;2022-07-30T02:10:29;19.90;99.90
1107;DHT22;540;49.448;8.612;2022-07-30T02:12:59;20.10;99.90
1107;DHT22;540;49.448;8.612;2022-07-30T02:15:31;20.40;99.90
1107;DHT22;540;49.448;8.612;2022-07-30T02:18:06;20.40;99.90
1107;DHT22;540;49.448;8.612;2022-07-30T02:20:37;20.40;99.90
1107;DHT22;540;49.448;8.612;2022-07-30T02:23:16;20.10;99.90
1107;DHT22;540;49.448;8.612;2022-07-30T02:25:48;20.30;99.90
1107;DHT22;540;49.448;8.612;2022-07-30T02:28:19;20.20;99.90
1107;DHT22;540;49.448;8.612;2022-07-30T02:30:51;20.30;99.90
1107;DHT22;540;49.448;8.612;2022-07-30T02:33:22;20.10;99.90
1107;DHT22;540;49.448;8.612;2022-07-30T02:35:51;19.90;99.90
1107;DHT22;540;49.448;8.612;2022-07-30T02:38:21;20.10;99.90
1107;DHT22;540;49.448;8.612;2022-07-30T02:40:51;19.80;99.90
1107;DHT22;540;49.448;8.612;2022-07-30T02:43:21;19.60;99.90
1107;DHT22;540;49.448;8.612;2022-07-30T02:45:52;19.60;99.90
1107;DHT22;540;49.448;8.612;2022-07-30T02:48:21;19.70;99.90
1107;DHT22;540;49.448;8.612;2022-07-30T02:51:02;19.50;99.90
1107;DHT22;540;49.448;8.612;2022-07-30T02:53:31;19.70;99.90
1107;DHT22;540;49.448;8.612;2022-07-30T02:56:01;19.60;99.90
1107;DHT22;540;49.448;8.612;2022-07-30T02:58:31;19.60;99.90
1107;DHT22;540;49.448;8.612;2022-07-30T03:00:59;20.00;99.90
1107;DHT22;540;49.448;8.612;2022-07-30T03:03:30;19.70;99.90
1107;DHT22;540;49.448;8.612;2022-07-30T03:05:59;19.80;99.90
1107;DHT22;540;49.448;8.612;2022-07-30T03:08:30;19.70;99.90
1107;DHT22;540;49.448;8.612;2022-07-30T03:10:59;19.40;99.90
1107;DHT22;540;49.448;8.612;2022-07-30T03:13:28;19.80;99.90
1107;DHT22;540;49.448;8.612;2022-07-30T03:16:00;19.70;99.90
1107;DHT22;540;49.448;8.612;2022-07-30T03:18:32;19.30;99.90
1107;DHT22;540;49.448;8.612;2022-07-30T03:21:01;19.00;99.90
1107;DHT22;540;49.448;8.612;2022-07-30T03:23:32;19.50;99.90
1107;DHT22;540;49.448;8.612;2022-07-30T03:26:03;19.50;99.90
1107;DHT22;540;49.448;8.612;2022-07-30T03:28:35;19.20;99.90
1107;DHT22;540;49.448;8.612;2022-07-30T03:31:05;19.50;99.90
1107;DHT22;540;49.448;8.612;2022-07-30T03:33:34;19.50;99.90
1107;DHT22;540;49.448;8.612;2022-07-30T03:36:05;19.00;99.90
1107;DHT22;540;49.448;8.612;2022-07-30T03:38:34;19.30;99.90
1107;DHT22;540;49.448;8.612;2022-07-30T03:41:03;19.40;99.90
1107;DHT22;540;49.448;8.612;2022-07-30T03:43:31;19.20;99.90
1107;DHT22;540;49.448;8.612;2022-07-30T03:46:01;19.30;99.90
1107;DHT22;540;49.448;8.612;2022-07-30T03:48:32;19.20;99.90
1107;DHT22;540;49.448;8.612;2022-07-30T03:51:02;19.30;99.90
1107;DHT22;540;49.448;8.612;2022-07-30T03:53:30;19.00;99.90
1107;DHT22;540;49.448;8.612;2022-07-30T03:55:59;19.40;99.90
1107;DHT22;540;49.448;8.612;2022-07-30T03:58:27;19.20;99.90
1107;DHT22;540;49.448;8.612;2022-07-30T04:01:02;18.90;99.90
1107;DHT22;540;49.448;8.612;2022-07-30T04:03:32;19.20;99.90
1107;DHT22;540;49.448;8.612;2022-07-30T04:06:00;19.20;99.90
1107;DHT22;540;49.448;8.612;2022-07-30T04:08:28;18.90;99.90
1107;DHT22;540;49.448;8.612;2022-07-30T04:10:56;19.30;99.90
1107;DHT22;540;49.448;8.612;2022-07-30T04:13:24;19.20;99.90
1107;DHT22;540;49.448;8.612;2022-07-30T04:16:08;19.00;99.90
1107;DHT22;540;49.448;8.612;2022-07-30T04:18:59;19.00;99.90
1107;DHT22;540;49.448;8.612;2022-07-30T04:21:28;19.00;99.90
1107;DHT22;540;49.448;8.612;2022-07-30T04:23:59;19.10;99.90
1107;DHT22;540;49.448;8.612;2022-07-30T04:26:33;19.00;99.90
1107;DHT22;540;49.448;8.612;2022-07-30T04:29:03;18.90;99.90
1107;DHT22;540;49.448;8.612;2022-07-30T04:31:32;19.20;99.90
1107;DHT22;540;49.448;8.612;2022-07-30T04:34:11;19.10;99.90
1107;DHT22;540;49.448;8.612;2022-07-30T04:36:40;19.60;99.90
1107;DHT22;540;49.448;8.612;2022-07-30T04:39:08;19.50;99.90
1107;DHT22;540;49.448;8.612;2022-07-30T04:41:36;19.60;99.90
1107;DHT22;540;49.448;8.612;2022-07-30T04:44:14;19.40;99.90
1107;DHT22;540;49.448;8.612;2022-07-30T04:46:42;19.20;99.90
1107;DHT22;540;49.448;8.612;2022-07-30T04:49:13;19.40;99.90
1107;DHT22;540;49.448;8.612;2022-07-30T04:51:43;19.60;99.90
1107;DHT22;540;49.448;8.612;2022-07-30T04:54:13;19.60;99.90
1107;DHT22;540;49.448;8.612;2022-07-30T04:56:42;19.70;99.90
1107;DHT22;540;49.448;8.612;2022-07-30T04:59:22;19.30;99.90
1107;DHT22;540;49.448;8.612;2022-07-30T05:01:50;19.60;99.90
1107;DHT22;540;49.448;8.612;2022-07-30T05:04:22;19.50;99.90
1107;DHT22;540;49.448;8.612;2022-07-30T05:06:51;19.60;99.90
1107;DHT22;540;49.448;8.612;2022-07-30T05:09:19;19.60;99.90
1107;DHT22;540;49.448;8.612;2022-07-30T05:11:50;19.40;99.90
1107;DHT22;540;49.448;8.612;2022-07-30T05:14:18;19.40;99.90
1107;DHT22;540;49.448;8.612;2022-07-30T05:16:46;18.90;99.90
1107;DHT22;540;49.448;8.612;2022-07-30T05:19:14;19.30;99.90
1107;DHT22;540;49.448;8.612;2022-07-30T05:21:43;19.40;99.90
1107;DHT22;540;49.448;8.612;2022-07-30T05:24:11;19.40;99.90
1107;DHT22;540;49.448;8.612;2022-07-30T05:26:39;19.80;99.90
1107;DHT22;540;49.448;8.612;2022-07-30T05:29:07;19.70;99.90
1107;DHT22;540;49.448;8.612;2022-07-30T05:31:45;19.70;99.90
1107;DHT22;540;49.448;8.612;2022-07-30T05:34:13;19.50;99.90
1107;DHT22;540;49.448;8.612;2022-07-30T05:36:41;19.70;99.90
1107;DHT22;540;49.448;8.612;2022-07-30T05:39:11;19.40;99.90
1107;DHT22;540;49.448;8.612;2022-07-30T05:41:39;19.80;99.90
1107;DHT22;540;49.448;8.612;2022-07-30T05:44:07;19.70;99.90
1107;DHT22;540;49.448;8.612;2022-07-30T05:46:35;19.80;99.90
1107;DHT22;540;49.448;8.612;2022-07-30T05:49:03;20.10;99.90
1107;DHT22;540;49.448;8.612;2022-07-30T05:51:32;19.80;99.90
1107;DHT22;540;49.448;8.612;2022-07-30T05:54:00;20.10;99.90
1107;DHT22;540;49.448;8.612;2022-07-30T05:56:29;20.40;99.90
1107;DHT22;540;49.448;8.612;2022-07-30T05:58:57;20.30;99.90
1107;DHT22;540;49.448;8.612;2022-07-30T06:01:24;20.20;99.90
1107;DHT22;540;49.448;8.612;2022-07-30T06:03:52;20.50;99.90
1107;DHT22;540;49.448;8.612;2022-07-30T06:06:20;20.70;99.90
1107;DHT22;540;49.448;8.612;2022-07-30T06:08:49;20.70;99.90
1107;DHT22;540;49.448;8.612;2022-07-30T06:11:17;20.80;99.90
1107;DHT22;540;49.448;8.612;2022-07-30T06:13:46;20.60;99.90
1107;DHT22;540;49.448;8.612;2022-07-30T06:16:14;20.90;99.90
1107;DHT22;540;49.448;8.612;2022-07-30T06:18:42;21.10;99.90
1107;DHT22;540;49.448;8.612;2022-07-30T06:21:10;20.90;99.70
1107;DHT22;540;49.448;8.612;2022-07-30T06:23:37;21.10;99.90
1107;DHT22;540;49.448;8.612;2022-07-30T06:26:05;21.20;99.90
1107;DHT22;540;49.448;8.612;2022-07-30T06:28:33;21.10;98.60
1107;DHT22;540;49.448;8.612;2022-07-30T06:31:06;21.40;96.80
1107;DHT22;540;49.448;8.612;2022-07-30T06:33:34;21.60;96.40
1107;DHT22;540;49.448;8.612;2022-07-30T06:36:02;21.80;96.00
1107;DHT22;540;49.448;8.612;2022-07-30T06:38:30;21.90;96.50
1107;DHT22;540;49.448;8.612;2022-07-30T06:40:58;22.10;94.00
1107;DHT22;540;49.448;8.612;2022-07-30T06:43:30;22.00;94.00
1107;DHT22;540;49.448;8.612;2022-07-30T06:45:58;22.10;93.40
1107;DHT22;540;49.448;8.612;2022-07-30T06:48:29;22.30;90.90
1107;DHT22;540;49.448;8.612;2022-07-30T06:50:58;22.60;87.20
1107;DHT22;540;49.448;8.612;2022-07-30T06:53:26;22.90;82.80
1107;DHT22;540;49.448;8.612;2022-07-30T06:55:54;23.70;75.60
1107;DHT22;540;49.448;8.612;2022-07-30T06:58:26;24.70;70.00
1107;DHT22;540;49.448;8.612;2022-07-30T07:00:54;25.60;63.90
1107;DHT22;540;49.448;8.612;2022-07-30T07:03:22;26.50;59.50
1107;DHT22;540;49.448;8.612;2022-07-30T07:06:07;27.20;56.50
1107;DHT22;540;49.448;8.612;2022-07-30T07:08:35;27.70;55.20
1107;DHT22;540;49.448;8.612;2022-07-30T07:11:03;28.10;53.00
1107;DHT22;540;49.448;8.612;2022-07-30T07:13:31;28.30;51.80
1107;DHT22;540;49.448;8.612;2022-07-30T07:15:59;28.60;50.80
1107;DHT22;540;49.448;8.612;2022-07-30T07:18:27;28.60;49.80
1107;DHT22;540;49.448;8.612;2022-07-30T07:20:55;29.10;49.10
1107;DHT22;540;49.448;8.612;2022-07-30T07:23:24;29.60;47.40
1107;DHT22;540;49.448;8.612;2022-07-30T07:26:08;30.00;46.40
1107;DHT22;540;49.448;8.612;2022-07-30T07:28:36;30.30;45.80
1107;DHT22;540;49.448;8.612;2022-07-30T07:31:05;30.30;44.70
1107;DHT22;540;49.448;8.612;2022-07-30T07:33:34;30.50;44.20
1107;DHT22;540;49.448;8.612;2022-07-30T07:36:02;30.60;44.20
1107;DHT22;540;49.448;8.612;2022-07-30T07:38:31;30.80;43.60
1107;DHT22;540;49.448;8.612;2022-07-30T07:40:59;30.60;42.90
1107;DHT22;540;49.448;8.612;2022-07-30T07:43:27;30.90;43.10
1107;DHT22;540;49.448;8.612;2022-07-30T07:45:55;31.00;42.20
1107;DHT22;540;49.448;8.612;2022-07-30T07:48:23;31.20;42.20
1107;DHT22;540;49.448;8.612;2022-07-30T07:50:51;31.10;41.60
1107;DHT22;540;49.448;8.612;2022-07-30T07:53:24;30.80;42.50
1107;DHT22;540;49.448;8.612;2022-07-30T07:55:53;30.90;42.00
1107;DHT22;540;49.448;8.612;2022-07-30T07:58:22;31.20;41.60
1107;DHT22;540;49.448;8.612;2022-07-30T08:00:52;31.80;40.20
1107;DHT22;540;49.448;8.612;2022-07-30T08:03:21;31.90;40.00
1107;DHT22;540;49.448;8.612;2022-07-30T08:05:49;32.60;39.10
1107;DHT22;540;49.448;8.612;2022-07-30T08:08:32;33.20;37.40
1107;DHT22;540;49.448;8.612;2022-07-30T08:11:04;33.00;37.70
1107;DHT22;540;49.448;8.612;2022-07-30T08:13:32;33.10;36.80
1107;DHT22;540;49.448;8.612;2022-07-30T08:16:17;33.30;36.90
1107;DHT22;540;49.448;8.612;2022-07-30T08:18:45;33.90;35.30
1107;DHT22;540;49.448;8.612;2022-07-30T08:21:13;34.30;34.30
1107;DHT22;540;49.448;8.612;2022-07-30T08:23:41;34.80;33.80
1107;DHT22;540;49.448;8.612;2022-07-30T08:26:11;35.00;33.00
1107;DHT22;540;49.448;8.612;2022-07-30T08:28:39;35.30;32.50
1107;DHT22;540;49.448;8.612;2022-07-30T08:31:08;34.90;32.40
1107;DHT22;540;49.448;8.612;2022-07-30T08:33:36;35.40;31.50
1107;DHT22;540;49.448;8.612;2022-07-30T08:36:04;35.10;32.00
1107;DHT22;540;49.448;8.612;2022-07-30T08:38:36;35.40;32.10
1107;DHT22;540;49.448;8.612;2022-07-30T08:41:04;35.70;31.70
1107;DHT22;540;49.448;8.612;2022-07-30T08:43:34;35.90;31.40
1107;DHT22;540;49.448;8.612;2022-07-30T08:46:04;35.50;30.80
1107;DHT22;540;49.448;8.612;2022-07-30T08:48:35;35.80;30.70
1107;DHT22;540;49.448;8.612;2022-07-30T08:51:03;36.10;30.00
1107;DHT22;540;49.448;8.612;2022-07-30T08:53:32;36.10;30.50
1107;DHT22;540;49.448;8.612;2022-07-30T08:56:01;35.90;29.80
1107;DHT22;540;49.448;8.612;2022-07-30T08:58:30;35.40;30.10
1107;DHT22;540;49.448;8.612;2022-07-30T09:01:01;36.10;29.30
1107;DHT22;540;49.448;8.612;2022-07-30T09:03:29;36.10;28.90
1107;DHT22;540;49.448;8.612;2022-07-30T09:05:59;36.20;28.90
1107;DHT22;540;49.448;8.612;2022-07-30T09:08:27;36.60;29.10
1107;DHT22;540;49.448;8.612;2022-07-30T09:10:55;36.60;28.70
1107;DHT22;540;49.448;8.612;2022-07-30T09:13:25;36.50;28.20
1107;DHT22;540;49.448;8.612;2022-07-30T09:15:54;35.90;29.10
1107;DHT22;540;49.448;8.612;2022-07-30T09:18:31;35.60;29.60
1107;DHT22;540;49.448;8.612;2022-07-30T09:21:00;34.80;30.20
1107;DHT22;540;49.448;8.612;2022-07-30T09:23:28;35.00;31.10
1107;DHT22;540;49.448;8.612;2022-07-30T09:25:57;34.70;30.40
1107;DHT22;540;49.448;8.612;2022-07-30T09:28:28;34.30;31.50
1107;DHT22;540;49.448;8.612;2022-07-30T09:30:57;34.30;31.40
1107;DHT22;540;49.448;8.612;2022-07-30T09:33:35;34.20;31.70
1107;DHT22;540;49.448;8.612;2022-07-30T09:36:04;34.30;30.40
1107;DHT22;540;49.448;8.612;2022-07-30T09:38:44;34.50;30.00
1107;DHT22;540;49.448;8.612;2022-07-30T09:41:13;34.00;30.40
1107;DHT22;540;49.448;8.612;2022-07-30T09:44:03;33.50;30.50
1107;DHT22;540;49.448;8.612;2022-07-30T09:46:40;34.20;29.60
1107;DHT22;540;49.448;8.612;2022-07-30T09:49:17;35.00;28.60
1107;DHT22;540;49.448;8.612;2022-07-30T09:51:46;34.80;28.30
1107;DHT22;540;49.448;8.612;2022-07-30T09:54:23;33.70;29.60
1107;DHT22;540;49.448;8.612;2022-07-30T09:57:03;32.20;32.10
1107;DHT22;540;49.448;8.612;2022-07-30T09:59:52;33.30;31.10
1107;DHT22;540;49.448;8.612;2022-07-30T10:02:23;34.50;29.50
1107;DHT22;540;49.448;8.612;2022-07-30T10:05:10;35.40;29.10
1107;DHT22;540;49.448;8.612;2022-07-30T10:07:46;36.00;27.60
1107;DHT22;540;49.448;8.612;2022-07-30T10:10:18;35.80;27.70
1107;DHT22;540;49.448;8.612;2022-07-30T10:12:52;35.10;28.20
1107;DHT22;540;49.448;8.612;2022-07-30T10:15:23;34.30;29.20
1107;DHT22;540;49.448;8.612;2022-07-30T10:17:54;33.10;30.00
1107;DHT22;540;49.448;8.612;2022-07-30T10:20:24;32.80;30.90
1107;DHT22;540;49.448;8.612;2022-07-30T10:22:53;32.30;31.60
1107;DHT22;540;49.448;8.612;2022-07-30T10:25:23;31.40;33.00
1107;DHT22;540;49.448;8.612;2022-07-30T10:27:54;31.00;34.30
1107;DHT22;540;49.448;8.612;2022-07-30T10:30:24;31.60;34.20
1107;DHT22;540;49.448;8.612;2022-07-30T10:32:56;32.60;32.20
1107;DHT22;540;49.448;8.612;2022-07-30T10:35:27;32.50;32.00
1107;DHT22;540;49.448;8.612;2022-07-30T10:38:07;31.40;33.10
1107;DHT22;540;49.448;8.612;2022-07-30T10:40:44;31.40;34.10
1107;DHT22;540;49.448;8.612;2022-07-30T10:43:41;32.30;33.10
1107;DHT22;540;49.448;8.612;2022-07-30T10:46:17;32.30;32.40
1107;DHT22;540;49.448;8.612;2022-07-30T10:48:48;32.40;33.80
1107;DHT22;540;49.448;8.612;2022-07-30T10:51:19;32.90;32.90
1107;DHT22;540;49.448;8.612;2022-07-30T10:54:00;33.30;32.00
1107;DHT22;540;49.448;8.612;2022-07-30T10:56:28;33.10;32.00
1107;DHT22;540;49.448;8.612;2022-07-30T10:59:00;33.10;31.50
1107;DHT22;540;49.448;8.612;2022-07-30T11:04:36;32.60;32.40
1107;DHT22;540;49.448;8.612;2022-07-30T11:07:30;33.20;31.90
1107;DHT22;540;49.448;8.612;2022-07-30T11:10:00;33.30;31.60
1107;DHT22;540;49.448;8.612;2022-07-30T11:12:51;33.40;31.30
1107;DHT22;540;49.448;8.612;2022-07-30T11:15:19;33.40;30.90
1107;DHT22;540;49.448;8.612;2022-07-30T11:18:02;33.60;30.70
1107;DHT22;540;49.448;8.612;2022-07-30T11:20:40;33.60;30.60
1107;DHT22;540;49.448;8.612;2022-07-30T11:23:38;34.10;30.10
1107;DHT22;540;49.448;8.612;2022-07-30T11:26:06;33.80;30.20
1107;DHT22;540;49.448;8.612;2022-07-30T11:28:42;33.50;30.10
1107;DHT22;540;49.448;8.612;2022-07-30T11:31:27;33.10;30.30
1107;DHT22;540;49.448;8.612;2022-07-30T11:34:24;32.50;31.50
1107;DHT22;540;49.448;8.612;2022-07-30T11:37:13;32.70;31.60
1107;DHT22;540;49.448;8.612;2022-07-30T11:40:09;32.60;31.40
1107;DHT22;540;49.448;8.612;2022-07-30T11:42:39;32.20;30.60
1107;DHT22;540;49.448;8.612;2022-07-30T11:45:21;32.00;32.40
1107;DHT22;540;49.448;8.612;2022-07-30T11:47:53;31.60;32.10
1107;DHT22;540;49.448;8.612;2022-07-30T11:50:23;31.30;32.90
1107;DHT22;540;49.448;8.612;2022-07-30T11:52:52;31.40;33.30
1107;DHT22;540;49.448;8.612;2022-07-30T11:55:23;31.90;32.90
1107;DHT22;540;49.448;8.612;2022-07-30T11:57:52;32.60;31.40
1107;DHT22;540;49.448;8.612;2022-07-30T12:00:20;33.50;30.10
1107;DHT22;540;49.448;8.612;2022-07-30T12:02:48;33.80;29.40
1107;DHT22;540;49.448;8.612;2022-07-30T12:05:22;33.30;28.70
1107;DHT22;540;49.448;8.612;2022-07-30T12:07:50;32.90;29.60
1107;DHT22;540;49.448;8.612;2022-07-30T12:10:19;33.10;29.60
1107;DHT22;540;49.448;8.612;2022-07-30T12:13:05;32.40;29.60
1107;DHT22;540;49.448;8.612;2022-07-30T12:15:36;32.00;30.60
1107;DHT22;540;49.448;8.612;2022-07-30T12:18:05;31.80;30.40
1107;DHT22;540;49.448;8.612;2022-07-30T12:20:54;31.60;31.20
1107;DHT22;540;49.448;8.612;2022-07-30T12:23:25;31.70;31.10
1107;DHT22;540;49.448;8.612;2022-07-30T12:25:54;31.50;31.10
1107;DHT22;540;49.448;8.612;2022-07-30T12:28:27;31.20;32.30
1107;DHT22;540;49.448;8.612;2022-07-30T12:30:56;31.10;32.10
1107;DHT22;540;49.448;8.612;2022-07-30T12:33:25;31.00;32.40
1107;DHT22;540;49.448;8.612;2022-07-30T12:35:54;30.80;33.10
1107;DHT22;540;49.448;8.612;2022-07-30T12:38:24;30.90;33.20
1107;DHT22;540;49.448;8.612;2022-07-30T12:40:54;31.10;32.50
1107;DHT22;540;49.448;8.612;2022-07-30T12:43:44;31.50;32.30
1107;DHT22;540;49.448;8.612;2022-07-30T12:46:15;31.80;31.90
1107;DHT22;540;49.448;8.612;2022-07-30T12:48:50;32.10;30.90
1107;DHT22;540;49.448;8.612;2022-07-30T12:51:21;32.70;29.90
1107;DHT22;540;49.448;8.612;2022-07-30T12:53:50;33.00;29.70
1107;DHT22;540;49.448;8.612;2022-07-30T12:56:21;33.50;29.20
1107;DHT22;540;49.448;8.612;2022-07-30T12:58:50;33.70;28.30
1107;DHT22;540;49.448;8.612;2022-07-30T13:01:18;32.90;28.30
1107;DHT22;540;49.448;8.612;2022-07-30T13:04:05;32.50;28.90
1107;DHT22;540;49.448;8.612;2022-07-30T13:06:33;31.80;29.80
1107;DHT22;540;49.448;8.612;2022-07-30T13:09:01;31.60;30.60
1107;DHT22;540;49.448;8.612;2022-07-30T13:11:37;31.40;30.50
1107;DHT22;540;49.448;8.612;2022-07-30T13:14:08;31.00;31.20
1107;DHT22;540;49.448;8.612;2022-07-30T13:16:38;30.40;31.60
1107;DHT22;540;49.448;8.612;2022-07-30T13:19:08;30.10;32.90
1107;DHT22;540;49.448;8.612;2022-07-30T13:21:38;30.10;32.80
1107;DHT22;540;49.448;8.612;2022-07-30T13:24:15;30.10;33.20
1107;DHT22;540;49.448;8.612;2022-07-30T13:26:44;30.10;33.80
1107;DHT22;540;49.448;8.612;2022-07-30T13:29:13;30.30;32.90
1107;DHT22;540;49.448;8.612;2022-07-30T13:31:40;30.20;32.50
1107;DHT22;540;49.448;8.612;2022-07-30T13:34:09;30.00;33.30
1107;DHT22;540;49.448;8.612;2022-07-30T13:36:37;30.10;34.30
1107;DHT22;540;49.448;8.612;2022-07-30T13:39:05;30.40;34.00
1107;DHT22;540;49.448;8.612;2022-07-30T13:41:34;30.60;33.30
1107;DHT22;540;49.448;8.612;2022-07-30T13:44:02;30.90;33.20
1107;DHT22;540;49.448;8.612;2022-07-30T13:46:32;30.90;32.00
1107;DHT22;540;49.448;8.612;2022-07-30T13:48:59;31.10;31.50
1107;DHT22;540;49.448;8.612;2022-07-30T13:51:27;31.20;31.50
1107;DHT22;540;49.448;8.612;2022-07-30T13:53:55;31.40;31.60
1107;DHT22;540;49.448;8.612;2022-07-30T13:56:23;31.80;31.30
1107;DHT22;540;49.448;8.612;2022-07-30T13:58:51;32.00;30.80
1107;DHT22;540;49.448;8.612;2022-07-30T14:01:20;32.10;30.20
1107;DHT22;540;49.448;8.612;2022-07-30T14:03:49;32.00;29.40
1107;DHT22;540;49.448;8.612;2022-07-30T14:06:17;31.80;29.70
1107;DHT22;540;49.448;8.612;2022-07-30T14:08:45;31.50;29.60
1107;DHT22;540;49.448;8.612;2022-07-30T14:11:13;31.20;30.30
1107;DHT22;540;49.448;8.612;2022-07-30T14:13:42;31.10;30.30
1107;DHT22;540;49.448;8.612;2022-07-30T14:16:11;31.10;30.70
1107;DHT22;540;49.448;8.612;2022-07-30T14:19:00;31.10;31.30
1107;DHT22;540;49.448;8.612;2022-07-30T14:21:28;30.90;32.10
1107;DHT22;540;49.448;8.612;2022-07-30T14:23:56;30.90;32.30
1107;DHT22;540;49.448;8.612;2022-07-30T14:26:24;31.40;32.30
1107;DHT22;540;49.448;8.612;2022-07-30T14:29:02;31.30;31.90
1107;DHT22;540;49.448;8.612;2022-07-30T14:31:30;31.10;31.10
1107;DHT22;540;49.448;8.612;2022-07-30T14:33:58;31.00;31.30
1107;DHT22;540;49.448;8.612;2022-07-30T14:36:27;30.60;32.00
1107;DHT22;540;49.448;8.612;2022-07-30T14:38:55;30.60;32.40
1107;DHT22;540;49.448;8.612;2022-07-30T14:41:24;30.80;32.60
1107;DHT22;540;49.448;8.612;2022-07-30T14:43:53;30.80;32.60
1107;DHT22;540;49.448;8.612;2022-07-30T14:46:22;30.70;31.80
1107;DHT22;540;49.448;8.612;2022-07-30T14:48:50;30.70;32.20
1107;DHT22;540;49.448;8.612;2022-07-30T14:51:18;30.60;31.30
1107;DHT22;540;49.448;8.612;2022-07-30T14:53:53;30.70;30.40
1107;DHT22;540;49.448;8.612;2022-07-30T14:56:22;30.80;30.00
1107;DHT22;540;49.448;8.612;2022-07-30T14:58:50;30.70;29.80
1107;DHT22;540;49.448;8.612;2022-07-30T15:01:19;30.70;29.40
1107;DHT22;540;49.448;8.612;2022-07-30T15:03:47;30.80;29.90
1107;DHT22;540;49.448;8.612;2022-07-30T15:06:15;30.90;29.50
1107;DHT22;540;49.448;8.612;2022-07-30T15:08:43;30.80;29.50
1107;DHT22;540;49.448;8.612;2022-07-30T15:11:13;30.90;29.10
1107;DHT22;540;49.448;8.612;2022-07-30T15:13:41;31.10;28.80
1107;DHT22;540;49.448;8.612;2022-07-30T15:16:16;31.30;29.10
1107;DHT22;540;49.448;8.612;2022-07-30T15:18:44;31.30;28.50
1107;DHT22;540;49.448;8.612;2022-07-30T15:21:12;31.10;27.90
1107;DHT22;540;49.448;8.612;2022-07-30T15:23:40;31.10;27.50
1107;DHT22;540;49.448;8.612;2022-07-30T15:26:08;31.10;27.40
1107;DHT22;540;49.448;8.612;2022-07-30T15:28:38;31.30;27.40
1107;DHT22;540;49.448;8.612;2022-07-30T15:31:06;31.20;28.40
1107;DHT22;540;49.448;8.612;2022-07-30T15:33:33;31.00;27.20
1107;DHT22;540;49.448;8.612;2022-07-30T15:36:03;31.00;26.90
1107;DHT22;540;49.448;8.612;2022-07-30T15:38:31;31.20;27.30
1107;DHT22;540;49.448;8.612;2022-07-30T15:40:59;31.20;27.10
1107;DHT22;540;49.448;8.612;2022-07-30T15:43:27;31.20;27.70
1107;DHT22;540;49.448;8.612;2022-07-30T15:45:56;30.80;27.60
1107;DHT22;540;49.448;8.612;2022-07-30T15:48:24;30.50;28.10
1107;DHT22;540;49.448;8.612;2022-07-30T15:50:56;30.40;28.10
1107;DHT22;540;49.448;8.612;2022-07-30T15:53:26;30.40;29.10
1107;DHT22;540;49.448;8.612;2022-07-30T15:55:53;30.40;28.90
1107;DHT22;540;49.448;8.612;2022-07-30T15:58:21;30.40;29.20
1107;DHT22;540;49.448;8.612;2022-07-30T16:00:49;30.40;29.30
1107;DHT22;540;49.448;8.612;2022-07-30T16:03:18;30.30;29.30
1107;DHT22;540;49.448;8.612;2022-07-30T16:05:46;30.30;29.20
1107;DHT22;540;49.448;8.612;2022-07-30T16:08:18;30.30;29.20
1107;DHT22;540;49.448;8.612;2022-07-30T16:10:46;30.40;29.70
1107;DHT22;540;49.448;8.612;2022-07-30T16:13:14;30.30;29.40
1107;DHT22;540;49.448;8.612;2022-07-30T16:15:42;30.20;29.50
1107;DHT22;540;49.448;8.612;2022-07-30T16:18:10;30.10;29.60
1107;DHT22;540;49.448;8.612;2022-07-30T16:20:39;30.10;29.60
1107;DHT22;540;49.448;8.612;2022-07-30T16:23:07;30.30;29.50
1107;DHT22;540;49.448;8.612;2022-07-30T16:25:41;30.30;29.40
1107;DHT22;540;49.448;8.612;2022-07-30T16:28:09;30.40;29.10
1107;DHT22;540;49.448;8.612;2022-07-30T16:30:37;30.10;30.00
1107;DHT22;540;49.448;8.612;2022-07-30T16:33:17;30.00;30.10
1107;DHT22;540;49.448;8.612;2022-07-30T16:35:46;30.00;30.70
1107;DHT22;540;49.448;8.612;2022-07-30T16:38:17;29.70;31.10
1107;DHT22;540;49.448;8.612;2022-07-30T16:40:45;29.60;31.70
1107;DHT22;540;49.448;8.612;2022-07-30T16:43:13;29.70;32.10